Observations for RENNES ST. JACQUES, France (LFRN)

LFRN 252200Z AUTO 32005KT CAVOK 13/12 Q1021 TEMPO BKN008
LFRN 252130Z AUTO 31005KT 9999 FEW010 13/13 Q1022 TEMPO BKN008  
LFRN 252100Z AUTO 31006KT CAVOK 14/13 Q1022 TEMPO BKN008
LFRN 252030Z AUTO 33007KT 9999 FEW027 15/13 Q1022 TEMPO BKN008  
LFRN 252000Z AUTO 33006KT 300V360 9999 FEW011 15/13 Q1021 TEMPO BKN008  
LFRN 251930Z AUTO 33008KT 9999 FEW013 OVC049 16/14 Q1021 TEMPO BKN008   
LFRN 251900Z AUTO 33006KT 9999 FEW012 SCT025 OVC047 16/14 Q1021 TEMPO BKN008
LFRN 251830Z AUTO 35007KT 9999 BKN012 OVC026 16/14 Q1021 TEMPO BKN008   
LFRN 251800Z AUTO 33008KT 9999 BKN011 BKN016 OVC024 16/15 Q1021 TEMPO BKN008
LFRN 251730Z AUTO 33009KT 310V010 9999 BKN011 BKN016 OVC022 16/15 Q1021 TEMPO BKN008
LFRN 251700Z AUTO 33011KT 9999 OVC012 17/15 Q1020 NOSIG 
LFRN 251630Z AUTO 33012KT 9999 BKN014 BKN023 BKN030 17/15 Q1020 NOSIG   
LFRN 251600Z AUTO 33008KT 300V360 9999 SCT015 BKN022 BKN027 18/16 Q1020 TEMPO BKN013
LFRN 251530Z AUTO 33008KT 9999 SCT014 BKN023 BKN034 19/16 Q1019 TEMPO BKN013
LFRN 251500Z AUTO 32010KT 9999 2200 BKN015 BKN029 BKN038 18/16 Q1019 NOSIG  
LFRN 251430Z AUTO 32006KT 9999 SCT013 BKN049 OVC056 18/16 Q1019 NOSIG   
LFRN 251400Z AUTO 31009KT 9999 SCT016 BKN035 OVC048 18/16 Q1019 NOSIG   
LFRN 251330Z AUTO 33007KT 9999 BKN016 BKN026 OVC040 19/16 Q1019 NOSIG   
LFRN 251300Z AUTO 32007KT 9999 BKN015 BKN025 BKN033 19/16 Q1019 TEMPO 4000 RA BKN008
LFRN 251230Z AUTO 34007KT 9999 BKN014 BKN020 OVC034 18/15 Q1019 TEMPO 4000 RA BECMG BKN020  
LFRN 251200Z AUTO 34006KT 300V010 9999 BKN015 BKN022 BKN028 18/16 Q1019 TEMPO 4000 RA BKN008
LFRN 251130Z AUTO 32005KT 300V360 9999 BKN010 OVC015 17/15 Q1019 TEMPO 4000 RA  
LFRN 251100Z AUTO 31005KT 9999 SCT009 OVC014 17/16 Q1019 TEMPO 4000 RA BKN008   
LFRN 251030Z AUTO 32006KT 9999 -RADZ BKN008 BKN012 OVC025 17/15 Q1019 TEMPO 4000 RA 
LFRN 251000Z AUTO 32005KT 290V350 9999 BKN009 OVC014 16/15 Q1019 TEMPO 4000 RA  
LFRN 250930Z AUTO 33007KT 9999 OVC009 16/15 Q1019 TEMPO 4000 RA 
LFRN 250900Z AUTO 32006KT 290V350 9999 BKN008 OVC018 16/15 Q1018 TEMPO 4000 RA  
LFRN 250830Z AUTO 35006KT 320V030 9000 -DZ BKN005 OVC012 16/15 Q1018 TEMPO 4000 RA  
LFRN 250800Z AUTO 26004KT 3000 -DZ BR OVC004 16/15 Q1018 TEMPO RA BKN008
LFRN 250730Z AUTO 25003KT 9999 -RA FEW004 BKN016 BKN022 16/15 Q1018 TEMPO 4000 RA BKN008
LFRN 250700Z AUTO 24002KT 8000 -RA FEW004 BKN020 BKN032 15/15 Q1018 TEMPO 4000 RA BKN008
LFRN 250630Z AUTO 22002KT 9000 -RA BKN004 BKN016 OVC023 15/15 Q1018 TEMPO 4000 RA BKN008
LFRN 250600Z AUTO 21003KT 9999 -RA OVC021 15/15 Q1017 TEMPO 2000 RA BKN003  
LFRN 250530Z AUTO 21005KT 9999 -RA FEW005 OVC014 15/15 Q1017 TEMPO 2000 RA BKN003   
LFRN 250500Z AUTO 20005KT 8000 -RA FEW004 OVC011 16/15 Q1017 TEMPO 2000 RA BKN003 BECMG 32010KT 
LFRN 250430Z AUTO 20004KT 8000 -RA FEW003 BKN012 OVC019 16/15 Q1017 TEMPO 2000 RA BKN003 BECMG 32010KT  
LFRN 250400Z AUTO 19004KT 9000 -RA SCT009/// BKN014/// BKN036/// ///TCU 16/15 Q1017 TEMPO 2000 RA BKN003 BECMG 32010KT  
LFRN 250330Z AUTO 17002KT 6000 -RA FEW016/// SCT078/// OVC098/// ///TCU 16/15 Q1017 TEMPO 2000 RA BKN003 BECMG 32010KT  
LFRN 250300Z AUTO 21002KT 6000 -RA FEW024 BKN080 OVC098 16/15 Q1017 TEMPO 2000 RA BKN003
LFRN 250230Z AUTO 21004KT 9000 -RA FEW011 SCT022 OVC084 16/16 Q1017 TEMPO 2000 RA BKN003
LFRN 250200Z AUTO 22002KT 6000 BKN007 BKN012 OVC022 16/16 Q1017 TEMPO 2000 RA BKN003
LFRN 250130Z AUTO 20004KT 8000 FEW003 OVC008 16/16 Q1017 TEMPO 2000 RA BKN003   
LFRN 250100Z AUTO 19003KT 4400 -RA BR BKN003 OVC028 16/16 Q1017 TEMPO 2000 RA   
LFRN 250030Z AUTO 19003KT 6000 -RADZ BKN004 OVC009 16/16 Q1018 TEMPO 2000 RA
LFRN 250000Z AUTO 21003KT 3600 -RA BR BKN004 BKN014 OVC023 16/16 Q1018 TEMPO 2000 RA
LFRN 242330Z AUTO 19002KT 6000 -RA FEW004/// BKN018/// BKN025/// ///TCU 16/16 Q1018 TEMPO 2000 RA BKN003
LFRN 242300Z AUTO VRB02KT 4800 RA BR SCT006/// BKN033/// BKN043/// ///TCU 16/16 Q1018 TEMPO 2000 RA BKN003  
LFRN 242230Z AUTO 00000KT 6000 -RA FEW007/// SCT020/// BKN060/// ///TCU 16/16 Q1018 TEMPO 2000 RA BKN003
LFRN 242200Z AUTO 25003KT 7000 -RA FEW007/// SCT031/// BKN052/// ///CB 16/16 Q1018 TEMPO 2000 RA BKN003 
LFRN 242130Z AUTO 25004KT 6000 RA BKN026/// BKN044/// BKN052/// ///CB 16/16 Q1018 TEMPO 2000 RA BKN003